Česky Dansk Deutsch English Español Suomi Français Magyar Italiano Nederlands norsk Polski Português svenska Türkçe

 

Het Weer

Khamis Mushait (Saudi-Arabië)

05:00, 15 augustus 2016 (GMT)

NWNNE
WE
SWSSE
Home            
Khamis Mushait Abha Gizan Sa'Ada / Sadah Najran Bisha Al Baha Al-Hazm Sana'A Wadi Al Dawasser Airport Hodeidah Marib Taif Massawa Sharurah Makkah Jeddah Asmara Taiz Jeddah King Abdul Aziz International Airport Mokha Mokha Assab

Om een weerknop op uw website of weblog te plaatsen, copieer onderstaande code en plak die in uw pagina. In het eerste vakje staat HTML-code, in het tweede vakje UBB-code.


Add to Google

Details

Celková viditeľnosť:Väčšia ako 10000 m, 10 km, 32800 ft, 6.2 miles
Clouds:CAVOC
Teplota:23°C, 73°F
Gefühlte Temperatur:25°C, 77°F
Rosným:14°C, 57°F
Atmosférický tlak:1023 hPa, 767.3 mmHg, 30.21 inHg, 1.010 atm
Relatívna vlhkosť vzduchu:56.9 %
METAR:OEKM 150500Z 00000KT CAVOK 23/14 Q1023 NOSIG

Snelkoppelingen

Actuele weersinformatie van de hele wereld. Voeg locaties toe met het plus (+) symbool. Deze snelkoppelingen kunnen worden toegevoegd aan Google.

Lid van de Technetium groep

website free tracking
StatCounter NetStat W3C Validator

17-04-2021 09:58:16
astro.technetium.be money.technetium.be phote.technetium.be tafeltennistafel.technetium.be www.ligfiets.net